Time;durP1;ratioP1;P1;durP2;ratioP2;P2;SDS_P1;SDS_P2;PMS_P1;PMS_P2;Temp;Humidity;BMP_temperature;BMP_pressure;BME280_temperature;BME280_humidity;BME280_pressure;Samples;Min_cycle;Max_cycle;Signal;HPM_P1;HPM_P2
2021/12/19 00:10:30;;;;;;;3.35;2.70;;;-2.60;91.80;-3.20;96517.00;;;;4985087;28;83384;-63
2021/12/19 00:12:57;;;;;;;2.88;2.15;;;-2.60;91.80;-3.10;96504.00;;;;4985973;28;83694;-63
2021/12/19 00:15:23;;;;;;;3.83;2.70;;;-2.60;91.80;-3.20;96504.00;;;;4984332;28;82367;-63
2021/12/19 00:17:49;;;;;;;4.10;2.50;;;-2.60;91.80;-3.20;96511.00;;;;4989781;28;83143;-63
2021/12/19 00:20:15;;;;;;;2.45;1.90;;;-2.60;91.80;-3.20;96493.00;;;;4982966;28;82800;-63
2021/12/19 00:22:41;;;;;;;2.80;2.22;;;-2.60;91.90;-3.20;96488.00;;;;4985061;28;82979;-63
2021/12/19 00:25:08;;;;;;;3.25;2.45;;;-2.60;91.80;-3.10;96483.00;;;;4992846;28;82886;-63
2021/12/19 00:27:34;;;;;;;3.05;2.17;;;-2.60;91.80;-3.20;96463.00;;;;4984833;28;82041;-62
2021/12/19 00:30:00;;;;;;;3.75;2.05;;;-2.60;91.80;-3.20;96450.00;;;;4985078;28;82603;-61
2021/12/19 00:32:26;;;;;;;3.00;2.30;;;-2.60;91.80;-3.20;96441.00;;;;4998926;28;83608;-61
2021/12/19 00:34:52;;;;;;;2.83;2.28;;;-2.60;91.80;-3.20;96436.00;;;;4984183;28;83643;-60
2021/12/19 00:37:21;;;;;;;4.25;2.15;;;-2.60;91.80;-3.20;96438.00;;;;4983906;28;82311;-60
2021/12/19 00:39:49;;;;;;;3.13;2.33;;;-2.60;91.80;-3.10;96433.00;;;;4983996;28;82346;-60
2021/12/19 00:42:36;;;;;;;2.42;1.88;;;-2.60;91.80;-3.20;96417.00;;;;4984372;28;83432;-61
2021/12/19 00:45:20;;;;;;;2.70;2.20;;;-2.60;91.80;-3.10;96406.00;;;;4966874;28;83089;-60
2021/12/19 00:47:47;;;;;;;2.65;2.17;;;-2.60;91.90;-3.10;96396.00;;;;4983343;28;81963;-59
2021/12/19 00:50:13;;;;;;;3.05;1.98;;;-2.60;91.80;-3.10;96387.00;;;;4984162;28;82504;-60
2021/12/19 00:52:40;;;;;;;2.47;1.90;;;-2.60;91.90;-3.10;96373.00;;;;4983474;28;83118;-60
2021/12/19 00:55:07;;;;;;;2.67;1.77;;;-2.50;91.90;-3.10;96368.00;;;;4982988;28;82366;-60
2021/12/19 00:57:33;;;;;;;2.88;2.28;;;-2.50;91.80;-3.10;96371.00;;;;4983501;28;82099;-63
2021/12/19 00:59:59;;;;;;;2.00;1.80;;;-2.60;91.80;-3.10;96354.00;;;;4984463;28;83389;-63
2021/12/19 01:02:25;;;;;;;2.03;1.70;;;-2.60;91.80;-3.10;96343.00;;;;4983658;28;83661;-64
2021/12/19 01:04:52;;;;;;;2.08;1.67;;;-2.60;91.80;-3.10;96331.00;;;;4983140;28;82428;-63
2021/12/19 01:07:18;;;;;;;2.58;2.05;;;-2.60;91.90;-3.10;96326.00;;;;4983191;28;82967;-63
2021/12/19 01:09:44;;;;;;;2.35;1.90;;;-2.60;91.90;-3.10;96318.00;;;;4984008;28;82585;-63
2021/12/19 01:12:10;;;;;;;2.40;1.90;;;-2.50;91.90;-3.10;96313.00;;;;4983720;28;84116;-63
2021/12/19 01:14:37;;;;;;;2.65;1.73;;;-2.50;91.90;-3.10;96302.00;;;;4983273;28;81894;-63
2021/12/19 01:17:06;;;;;;;5.10;2.10;;;-2.60;91.80;-3.10;96297.00;;;;4982241;28;82063;-62
2021/12/19 01:19:32;;;;;;;3.47;2.50;;;-2.60;91.80;-3.10;96282.00;;;;4980714;28;82528;-63
2021/12/19 01:21:59;;;;;;;2.08;1.80;;;-2.60;91.90;-3.10;96279.00;;;;4983207;28;81962;-63
2021/12/19 01:24:25;;;;;;;3.08;1.98;;;-2.60;92.00;-3.10;96279.00;;;;4983739;28;82868;-61
2021/12/19 01:26:51;;;;;;;2.60;2.15;;;-2.60;91.90;-3.10;96264.00;;;;4983275;28;82272;-63
2021/12/19 01:29:17;;;;;;;2.72;2.15;;;-2.50;92.00;-3.10;96250.00;;;;4983582;28;82188;-64
2021/12/19 01:31:43;;;;;;;2.72;1.95;;;-2.60;91.90;-3.10;96257.00;;;;4981707;28;84572;-63
2021/12/19 01:34:13;;;;;;;2.75;2.30;;;-2.60;91.90;-3.10;96233.00;;;;4982587;28;83739;-63
2021/12/19 01:36:43;;;;;;;2.55;1.95;;;-2.60;92.00;-3.10;96222.00;;;;4982787;28;82422;-63
2021/12/19 01:39:11;;;;;;;2.63;1.90;;;-2.50;92.10;-3.10;96219.00;;;;4981675;28;82133;-59
2021/12/19 01:41:52;;;;;;;2.38;2.00;;;-2.50;92.10;-3.10;96213.00;;;;4981917;28;82670;-59
2021/12/19 01:44:18;;;;;;;2.33;2.00;;;-2.50;92.00;-3.10;96204.00;;;;4983982;28;82612;-58
2021/12/19 01:46:46;;;;;;;2.78;1.92;;;-2.50;92.00;-3.10;96197.00;;;;4982198;28;81983;-58
2021/12/19 01:49:17;;;;;;;3.00;1.90;;;-2.50;92.10;-3.10;96181.00;;;;4983458;28;82604;-58
2021/12/19 01:51:44;;;;;;;2.75;2.10;;;-2.50;92.00;-3.10;96176.00;;;;4982274;28;82275;-58
2021/12/19 01:54:11;;;;;;;2.38;1.98;;;-2.50;92.00;-3.00;96165.00;;;;4982649;28;82301;-57
2021/12/19 01:56:38;;;;;;;2.95;1.90;;;-2.50;92.10;-3.10;96163.00;;;;4982551;28;83132;-59
2021/12/19 01:59:10;;;;;;;2.60;2.17;;;-2.50;92.00;-3.00;96155.00;;;;4981802;28;82367;-62
2021/12/19 02:01:45;;;;;;;2.38;1.80;;;-2.50;92.00;-3.00;96148.00;;;;4982205;28;82610;-59
2021/12/19 02:04:13;;;;;;;2.67;2.03;;;-2.50;92.00;-3.00;96138.00;;;;4982919;28;82579;-60
2021/12/19 02:06:40;;;;;;;2.20;1.95;;;-2.50;92.00;-3.00;96133.00;;;;4982990;28;82181;-60
2021/12/19 02:09:07;;;;;;;4.28;2.20;;;-2.50;92.00;-3.00;96122.00;;;;4983013;28;82459;-60
2021/12/19 02:11:35;;;;;;;3.28;2.28;;;-2.40;92.10;-3.00;96118.00;;;;4982700;28;82610;-60
2021/12/19 02:14:04;;;;;;;3.50;2.13;;;-2.40;92.10;-3.00;96112.00;;;;4983480;28;81674;-59
2021/12/19 02:16:30;;;;;;;3.13;2.30;;;-2.50;92.10;-3.00;96100.00;;;;4982246;28;82361;-59
2021/12/19 02:18:58;;;;;;;2.78;2.00;;;-2.50;92.00;-3.00;96093.00;;;;4982295;28;82389;-60
2021/12/19 02:21:24;;;;;;;2.97;2.00;;;-2.40;92.10;-3.00;96065.00;;;;4981181;28;84484;-59
2021/12/19 02:23:51;;;;;;;2.83;2.20;;;-2.40;92.10;-3.00;96073.00;;;;4982721;28;84312;-60
2021/12/19 02:26:17;;;;;;;2.30;2.00;;;-2.40;92.20;-3.00;96059.00;;;;4982778;28;82158;-59
2021/12/19 02:28:44;;;;;;;3.05;1.92;;;-2.40;92.10;-3.00;96052.00;;;;4982059;28;82953;-59
2021/12/19 02:31:10;;;;;;;2.50;2.13;;;-2.40;92.10;-3.00;96045.00;;;;4982565;28;82730;-59
2021/12/19 10:13:43;;;;;;;7.68;5.43;;;0.00;91.60;-0.40;95295.00;;;;5058150;27;82086;-64
2021/12/19 10:16:30;;;;;;;10.32;5.95;;;0.00;92.00;-0.40;95282.00;;;;5045944;27;81576;-64
2021/12/19 10:19:00;;;;;;;10.52;6.35;;;0.00;91.90;-0.40;95281.00;;;;5042413;27;82621;-64
2021/12/19 10:21:30;;;;;;;14.63;6.25;;;0.00;91.80;-0.30;95280.00;;;;5033991;27;82311;-65
2021/12/19 10:24:00;;;;;;;9.50;5.93;;;0.10;91.90;-0.20;95282.00;;;;5041032;27;81831;-64
2021/12/19 10:26:41;;;;;;;11.75;6.72;;;0.20;91.70;-0.10;95277.00;;;;5038876;28;81575;-65
2021/12/19 10:29:07;;;;;;;10.10;5.40;;;0.30;91.60;-0.10;95276.00;;;;5039163;28;81991;-63
2021/12/19 10:31:33;;;;;;;12.20;6.65;;;0.40;91.60;0.00;95277.00;;;;5039142;28;82468;-65
2021/12/19 10:34:22;;;;;;;13.93;5.75;;;0.30;91.50;0.00;95264.00;;;;5038653;28;82088;-64
2021/12/19 10:36:48;;;;;;;8.95;5.50;;;0.40;91.40;0.00;95263.00;;;;5031972;28;81489;-64
2021/12/19 10:39:19;;;;;;;9.63;5.47;;;0.40;91.30;0.00;95274.00;;;;5038920;28;82743;-64
2021/12/19 10:41:59;;;;;;;16.02;6.00;;;0.40;91.10;0.00;95258.00;;;;5038478;28;83937;-65
2021/12/19 10:47:25;;;;;;;9.40;5.00;;;0.40;91.00;-0.10;95258.00;;;;5039237;28;82075;-64
2021/12/19 10:49:53;;;;;;;9.75;4.53;;;0.40;90.90;0.00;95267.00;;;;5038961;28;82253;-65
2021/12/19 10:52:38;;;;;;;14.15;5.50;;;0.40;90.80;-0.10;95273.00;;;;5038833;28;82148;-65
2021/12/19 10:55:12;;;;;;;9.73;4.55;;;0.30;90.80;-0.10;95273.00;;;;5039601;27;82285;-66
2021/12/19 10:57:42;;;;;;;8.90;4.40;;;0.30;90.90;-0.10;95258.00;;;;5038383;28;81810;-66
2021/12/19 11:00:22;;;;;;;7.60;4.50;;;0.30;90.90;-0.10;95265.00;;;;5038731;28;81865;-65
2021/12/19 11:02:48;;;;;;;8.68;4.68;;;0.30;90.90;0.00;95261.00;;;;5039860;28;82292;-65
2021/12/19 11:05:42;;;;;;;8.30;4.05;;;0.30;90.90;0.00;95276.00;;;;5038840;28;81908;-64
2021/12/19 11:08:10;;;;;;;9.75;4.63;;;0.40;91.00;0.00;95265.00;;;;5039152;28;81454;-65
2021/12/19 11:10:38;;;;;;;7.45;3.45;;;0.40;91.00;0.00;95274.00;;;;5038916;28;82154;-64
2021/12/19 11:13:16;;;;;;;10.30;3.72;;;0.40;91.00;0.00;95275.00;;;;5038245;28;82348;-64
2021/12/19 11:15:43;;;;;;;9.40;3.95;;;0.40;91.00;0.00;95267.00;;;;5042118;27;82363;-63
2021/12/19 11:18:09;;;;;;;13.73;4.25;;;0.40;91.00;0.00;95265.00;;;;5049503;27;82036;-63
2021/12/19 11:20:35;;;;;;;8.25;3.78;;;0.40;90.90;0.10;95273.00;;;;5037193;28;81777;-64
2021/12/19 11:23:01;;;;;;;9.65;3.75;;;0.40;90.80;0.10;95263.00;;;;5037139;28;82499;-64
2021/12/19 11:25:28;;;;;;;8.75;3.28;;;0.50;90.90;0.10;95264.00;;;;5024757;28;81651;-65
2021/12/19 11:27:54;;;;;;;10.65;3.50;;;0.50;90.60;0.10;95265.00;;;;5023810;28;81764;-63
2021/12/19 11:30:21;;;;;;;8.00;3.15;;;0.50;90.60;0.10;95266.00;;;;5024787;28;81748;-64
2021/12/19 11:33:17;;;;;;;11.80;3.60;;;0.40;90.30;0.10;95267.00;;;;5025443;28;82495;-66
2021/12/19 11:35:46;;;;;;;6.28;2.78;;;0.50;90.50;0.10;95257.00;;;;5010843;28;81710;-66
2021/12/19 11:38:19;;;;;;;4.18;3.10;;;0.40;90.50;0.10;95264.00;;;;5022433;28;82549;-64
2021/12/19 11:40:46;;;;;;;9.02;3.75;;;0.50;90.60;0.10;95271.00;;;;5023516;28;82057;-66
2021/12/19 11:43:13;;;;;;;10.95;3.53;;;0.40;90.70;0.00;95267.00;;;;5023940;28;82327;-65
2021/12/19 11:45:46;;;;;;;9.15;3.65;;;0.40;90.60;0.00;95260.00;;;;5025563;28;82063;-65
2021/12/19 11:48:24;;;;;;;11.52;3.78;;;0.40;90.80;0.00;95258.00;;;;5024084;28;82541;-64
2021/12/19 11:51:15;;;;;;;6.88;3.80;;;0.40;90.70;0.10;95262.00;;;;5025090;28;82098;-64
2021/12/19 11:53:43;;;;;;;8.23;3.67;;;0.50;90.60;0.00;95258.00;;;;5024942;28;82128;-66
2021/12/19 11:56:16;;;;;;;4.68;2.92;;;0.50;90.60;0.00;95258.00;;;;5025511;28;81879;-64
2021/12/19 11:58:47;;;;;;;9.65;3.42;;;0.40;90.60;0.00;95252.00;;;;5021548;28;82102;-64
2021/12/19 12:01:28;;;;;;;9.57;3.65;;;0.40;90.60;0.00;95266.00;;;;5007051;28;81486;-63
2021/12/19 12:04:15;;;;;;;7.70;3.28;;;0.40;90.50;0.00;95254.00;;;;5024274;28;82336;-65
2021/12/19 12:06:56;;;;;;;7.60;3.00;;;0.50;90.60;0.00;95256.00;;;;5024869;28;81938;-64
2021/12/19 12:09:27;;;;;;;10.93;3.97;;;0.40;90.50;0.00;95249.00;;;;5025607;28;81840;-65
2021/12/19 12:12:10;;;;;;;8.48;3.45;;;0.50;90.50;0.00;95246.00;;;;5024150;28;81664;-65
2021/12/19 12:14:50;;;;;;;7.57;3.15;;;0.40;90.50;0.00;95246.00;;;;5021954;28;82483;-64
2021/12/19 12:17:23;;;;;;;8.05;3.40;;;0.40;90.60;0.10;95243.00;;;;5024669;28;81833;-65
2021/12/19 12:19:58;;;;;;;8.43;3.10;;;0.50;90.50;0.10;95261.00;;;;5024441;28;82570;-64
2021/12/19 12:22:47;;;;;;;9.55;3.00;;;0.50;90.50;0.00;95257.00;;;;5022994;28;81597;-64
2021/12/19 12:25:31;;;;;;;6.75;2.92;;;0.40;90.30;0.00;95250.00;;;;5027864;28;82181;-64
2021/12/19 12:28:06;;;;;;;7.82;2.60;;;0.50;90.50;0.00;95240.00;;;;5024903;28;82061;-64
2021/12/19 12:30:45;;;;;;;6.18;3.17;;;0.50;90.40;0.00;95247.00;;;;5024948;28;82979;-65
2021/12/19 12:33:18;;;;;;;7.63;3.55;;;0.50;90.50;0.00;95244.00;;;;5039436;28;81530;-64
2021/12/19 12:35:49;;;;;;;9.02;2.83;;;0.50;90.60;0.10;95253.00;;;;5017215;28;82181;-65
2021/12/19 12:38:16;;;;;;;5.13;2.87;;;0.50;90.50;0.10;95246.00;;;;5020449;28;81867;-64
2021/12/19 12:43:33;;;;;;;9.07;2.83;;;0.50;90.40;0.10;95251.00;;;;5024024;28;82029;-64
2021/12/19 12:46:09;;;;;;;6.18;2.78;;;0.50;90.30;0.00;95252.00;;;;5024804;28;82355;-65
2021/12/19 12:49:10;;;;;;;6.05;3.33;;;0.50;90.20;0.00;95242.00;;;;5021676;28;82115;-65
2021/12/19 12:52:05;;;;;;;5.72;2.85;;;0.50;90.30;0.00;95254.00;;;;5020565;28;81891;-64
2021/12/19 12:54:36;;;;;;;11.82;3.50;;;0.40;90.40;0.00;95248.00;;;;5022853;28;82040;-65
2021/12/19 12:57:10;;;;;;;7.18;3.20;;;0.40;90.40;0.00;95247.00;;;;5025856;28;82452;-65
2021/12/19 12:59:42;;;;;;;9.48;3.50;;;0.40;90.20;0.00;95244.00;;;;5023714;28;82060;-64
2021/12/19 13:04:43;;;;;;;8.60;3.10;;;0.40;90.20;0.00;95254.00;;;;5024549;28;81784;-64
2021/12/19 13:07:16;;;;;;;8.07;3.10;;;0.40;90.20;0.00;95251.00;;;;5024003;28;82345;-65
2021/12/19 13:09:46;;;;;;;6.30;3.55;;;0.40;90.40;0.00;95248.00;;;;5023555;28;82001;-64
2021/12/19 13:12:26;;;;;;;10.57;3.88;;;0.40;90.90;-0.10;95242.00;;;;5027825;28;81959;-63
2021/12/19 13:15:15;;;;;;;6.97;3.90;;;0.40;90.80;-0.10;95261.00;;;;5024637;28;81872;-63
2021/12/19 13:17:50;;;;;;;9.18;4.10;;;0.40;91.00;-0.10;95247.00;;;;5022516;28;82689;-64
2021/12/19 13:20:22;;;;;;;10.95;5.05;;;0.30;90.90;-0.10;95251.00;;;;5023098;28;82055;-64
2021/12/19 13:22:54;;;;;;;11.07;4.50;;;0.30;91.00;-0.10;95254.00;;;;5022774;28;81672;-64
2021/12/19 13:25:23;;;;;;;7.88;4.22;;;0.30;90.90;-0.10;95251.00;;;;5023698;28;81626;-65
2021/12/19 13:27:55;;;;;;;8.07;5.13;;;0.30;91.10;-0.10;95246.00;;;;5023328;28;82798;-65
2021/12/19 13:30:42;;;;;;;4.28;3.30;;;0.30;91.00;-0.10;95246.00;;;;5023903;28;82055;-64
2021/12/19 13:33:18;;;;;;;7.55;3.83;;;0.30;90.60;-0.10;95249.00;;;;5023153;28;82784;-64
2021/12/19 13:35:51;;;;;;;7.15;3.40;;;0.30;90.40;-0.10;95253.00;;;;5023909;28;82096;-65
2021/12/19 13:38:28;;;;;;;5.68;3.25;;;0.30;90.30;-0.10;95251.00;;;;5022012;28;82281;-65
2021/12/19 13:40:59;;;;;;;6.03;4.13;;;0.30;90.10;-0.10;95249.00;;;;5021017;28;82506;-64
2021/12/19 13:43:35;;;;;;;4.72;2.28;;;0.30;90.00;-0.10;95243.00;;;;5023481;28;82191;-64
2021/12/19 13:46:10;;;;;;;3.22;1.90;;;0.30;89.70;-0.20;95246.00;;;;5024054;28;81592;-64
2021/12/19 13:48:54;;;;;;;3.80;2.15;;;0.30;89.40;-0.10;95247.00;;;;5021566;28;82475;-64
2021/12/19 13:51:30;;;;;;;5.28;2.28;;;0.30;89.70;-0.10;95231.00;;;;5023115;28;83303;-64
2021/12/19 13:54:03;;;;;;;7.78;3.08;;;0.30;89.70;-0.20;95247.00;;;;5023034;28;81552;-64
2021/12/19 13:56:35;;;;;;;5.43;2.67;;;0.30;89.80;-0.20;95245.00;;;;5016363;28;82008;-64
2021/12/19 13:59:05;;;;;;;4.70;2.65;;;0.20;89.70;-0.10;95244.00;;;;5022785;28;84548;-64
2021/12/19 14:01:38;;;;;;;4.70;2.75;;;0.30;89.90;-0.20;95241.00;;;;5023557;28;81999;-64
2021/12/19 14:04:22;;;;;;;8.07;3.03;;;0.30;89.80;-0.20;95242.00;;;;5023081;28;81554;-64
2021/12/19 14:06:50;;;;;;;6.07;3.00;;;0.30;90.00;-0.20;95245.00;;;;5023054;28;81940;-64
2021/12/19 14:09:23;;;;;;;8.27;3.38;;;0.30;90.00;-0.20;95249.00;;;;5022813;28;82005;-64
2021/12/19 14:12:05;;;;;;;8.63;2.72;;;0.30;90.10;-0.10;95246.00;;;;5027439;28;82056;-65
2021/12/19 14:14:31;;;;;;;10.85;3.38;;;0.30;90.10;-0.20;95257.00;;;;5023189;28;82037;-64
2021/12/19 14:17:11;;;;;;;7.55;3.00;;;0.20;90.10;-0.20;95239.00;;;;5022749;28;82051;-64
2021/12/19 14:19:51;;;;;;;4.43;2.80;;;0.20;90.20;-0.20;95242.00;;;;5022503;28;82198;-65
2021/12/19 14:22:20;;;;;;;5.43;2.58;;;0.20;90.20;-0.20;95241.00;;;;5022470;28;82191;-64
2021/12/19 14:24:51;;;;;;;4.50;2.95;;;0.20;90.20;-0.20;95248.00;;;;5027999;28;82546;-64
2021/12/19 14:27:30;;;;;;;8.87;3.57;;;0.20;90.20;-0.20;95242.00;;;;5023341;28;82122;-64
2021/12/19 14:29:57;;;;;;;6.70;3.20;;;0.20;90.30;-0.30;95241.00;;;;5013411;28;81703;-65
2021/12/19 14:32:34;;;;;;;7.63;3.33;;;0.20;90.40;-0.30;95252.00;;;;5021548;28;81973;-65
2021/12/19 14:35:18;;;;;;;5.93;3.22;;;0.20;90.40;-0.30;95244.00;;;;5022299;28;82811;-64
2021/12/19 14:37:52;;;;;;;5.68;3.47;;;0.20;90.40;-0.20;95234.00;;;;5021395;28;82009;-63
2021/12/19 14:40:29;;;;;;;8.15;3.42;;;0.20;90.20;-0.30;95235.00;;;;5018424;28;84155;-67
2021/12/19 14:43:11;;;;;;;6.78;3.38;;;0.20;90.20;-0.30;95237.00;;;;5019219;28;83633;-65
2021/12/19 14:45:45;;;;;;;;;;;0.10;90.20;-0.30;95233.00;;;;5022895;28;83349;-64
2021/12/19 14:48:17;;;;;;;6.03;3.28;;;0.10;90.30;-0.30;95242.00;;;;5021339;28;82984;-64
2021/12/19 14:50:49;;;;;;;5.72;3.42;;;0.10;90.10;-0.30;95248.00;;;;5035545;28;83325;-65
2021/12/19 14:53:30;;;;;;;7.55;3.80;;;0.10;90.20;-0.30;95240.00;;;;5021628;28;82707;-64
2021/12/19 14:56:16;;;;;;;6.75;3.80;;;0.10;90.30;-0.30;95231.00;;;;5022191;28;83491;-64
2021/12/19 14:58:49;;;;;;;7.55;3.22;;;0.10;90.40;-0.30;95224.00;;;;5021345;28;82429;-64
2021/12/19 15:01:32;;;;;;;7.18;3.30;;;0.10;90.80;-0.40;95245.00;;;;5026066;28;82240;-65
2021/12/19 15:04:03;;;;;;;5.72;3.50;;;0.00;91.00;-0.50;95234.00;;;;5004199;28;84999;-65
2021/12/19 15:06:37;;;;;;;4.43;3.00;;;-0.10;91.40;-0.50;95221.00;;;;5023591;28;82369;-64
2021/12/19 15:09:06;;;;;;;8.75;4.18;;;-0.10;91.80;-0.60;95234.00;;;;5023637;28;82885;-64
2021/12/19 15:11:36;;;;;;;7.13;3.97;;;-0.20;92.00;-0.60;95232.00;;;;5028654;28;82476;-64
2021/12/19 15:14:04;;;;;;;5.28;3.80;;;-0.20;92.00;-0.60;95230.00;;;;5024826;28;82255;-64
2021/12/19 15:16:34;;;;;;;8.23;4.63;;;-0.20;92.00;-0.60;95228.00;;;;5024109;28;82849;-65
2021/12/19 15:19:03;;;;;;;9.20;4.90;;;-0.20;92.00;-0.60;95220.00;;;;5023972;28;82278;-65
2021/12/19 15:21:31;;;;;;;9.63;5.43;;;-0.20;92.00;-0.60;95227.00;;;;5023487;28;82926;-65
2021/12/19 15:23:59;;;;;;;6.88;5.05;;;-0.20;91.80;-0.60;95221.00;;;;5024332;28;82527;-64
2021/12/19 15:26:26;;;;;;;8.05;4.78;;;-0.20;91.80;-0.60;95223.00;;;;5024902;28;83074;-65
2021/12/19 15:28:54;;;;;;;8.82;4.85;;;-0.20;91.60;-0.60;95222.00;;;;5024727;28;82536;-65
2021/12/19 15:31:23;;;;;;;7.78;5.72;;;-0.10;91.50;-0.60;95227.00;;;;5023247;28;82280;-65
2021/12/19 15:33:51;;;;;;;11.35;5.68;;;-0.10;91.50;-0.60;95218.00;;;;5023400;28;82858;-64
2021/12/19 15:36:19;;;;;;;9.05;4.55;;;-0.10;91.40;-0.60;95225.00;;;;5028051;28;85573;-64
2021/12/19 15:38:47;;;;;;;7.60;4.90;;;-0.10;91.40;-0.50;95224.00;;;;5023466;28;82039;-65
2021/12/19 15:41:14;;;;;;;8.50;4.82;;;-0.10;91.30;-0.50;95221.00;;;;5024070;28;82235;-65
2021/12/19 15:43:40;;;;;;;6.72;4.22;;;-0.10;91.20;-0.50;95220.00;;;;5024407;28;83139;-65
2021/12/19 15:46:07;;;;;;;6.45;3.42;;;-0.10;91.00;-0.50;95214.00;;;;5039485;28;82437;-65
2021/12/19 15:48:33;;;;;;;10.02;5.05;;;0.00;90.60;-0.50;95228.00;;;;5023621;28;82370;-65
2021/12/19 15:50:59;;;;;;;8.65;4.50;;;-0.10;90.60;-0.50;95225.00;;;;5024796;28;81678;-65
2021/12/19 15:53:25;;;;;;;7.88;5.10;;;-0.10;90.70;-0.50;95221.00;;;;5024275;28;82508;-64
2021/12/19 15:55:51;;;;;;;11.77;5.13;;;0.00;90.80;-0.50;95223.00;;;;5025017;28;82855;-64
2021/12/19 15:58:18;;;;;;;6.45;3.83;;;-0.10;90.60;-0.50;95233.00;;;;5023221;28;83087;-64
2021/12/19 16:00:47;;;;;;;7.05;3.95;;;-0.10;90.40;-0.50;95232.00;;;;5024678;28;82081;-65
2021/12/19 16:03:13;;;;;;;7.95;4.40;;;0.00;90.40;-0.50;95216.00;;;;5024520;28;82559;-65
2021/12/19 16:05:40;;;;;;;7.90;3.83;;;-0.10;90.40;-0.50;95223.00;;;;5023971;28;82374;-66
2021/12/19 16:08:06;;;;;;;6.70;3.40;;;-0.10;90.70;-0.50;95218.00;;;;5024253;28;82234;-64
2021/12/19 16:10:33;;;;;;;6.10;3.50;;;-0.10;90.40;-0.50;95220.00;;;;5024150;28;82348;-65
2021/12/19 16:12:59;;;;;;;6.22;3.00;;;-0.10;90.40;-0.50;95221.00;;;;5022950;28;83549;-64
2021/12/19 16:15:25;;;;;;;6.75;3.03;;;0.00;90.40;-0.50;95216.00;;;;5025646;28;81774;-63
2021/12/19 16:17:55;;;;;;;5.80;3.25;;;-0.10;90.50;-0.50;95221.00;;;;5025227;28;81935;-66
2021/12/19 16:20:24;;;;;;;5.05;3.33;;;-0.10;90.70;-0.50;95216.00;;;;5019386;28;82458;-63
2021/12/19 16:22:51;;;;;;;7.60;3.67;;;-0.10;90.80;-0.60;95217.00;;;;5038526;28;84861;-64
2021/12/19 16:25:17;;;;;;;5.18;3.10;;;-0.10;91.00;-0.60;95216.00;;;;5023967;28;83099;-63
2021/12/19 16:27:44;;;;;;;6.72;3.58;;;-0.20;91.00;-0.60;95210.00;;;;5023747;28;82224;-63
2021/12/19 16:30:18;;;;;;;9.18;3.67;;;-0.20;90.90;-0.60;95215.00;;;;5023553;28;82499;-65
2021/12/19 16:32:46;;;;;;;6.45;3.42;;;-0.20;91.00;-0.60;95219.00;;;;5023479;28;83575;-63
2021/12/19 16:35:12;;;;;;;6.43;3.25;;;-0.20;90.90;-0.60;95210.00;;;;5023353;28;82058;-63
2021/12/19 16:37:39;;;;;;;8.43;4.60;;;-0.20;91.00;-0.60;95215.00;;;;5022216;28;82717;-64
2021/12/19 16:40:09;;;;;;;7.78;4.80;;;-0.20;91.60;-0.70;95211.00;;;;5023582;28;82121;-64
2021/12/19 16:45:03;;;;;;;8.63;6.28;;;-0.30;91.90;-0.80;95208.00;;;;5023594;28;82445;-64
2021/12/19 16:47:29;;;;;;;6.65;5.75;;;-0.30;92.30;-0.80;95209.00;;;;5022571;28;83425;-66
2021/12/19 16:49:55;;;;;;;6.82;5.38;;;-0.40;92.30;-0.80;95204.00;;;;5023111;28;82484;-63
2021/12/19 16:52:21;;;;;;;8.07;6.03;;;-0.40;92.40;-0.90;95216.00;;;;5023227;28;83141;-65
2021/12/19 16:54:48;;;;;;;7.03;6.03;;;-0.40;92.50;-0.90;95219.00;;;;5023178;28;82595;-65
2021/12/19 16:57:16;;;;;;;6.57;3.88;;;-0.40;92.50;-0.90;95221.00;;;;5022562;28;82078;-64
2021/12/19 16:59:43;;;;;;;6.30;3.72;;;-0.50;92.10;-0.90;95218.00;;;;5023173;28;82165;-67
2021/12/19 17:02:12;;;;;;;2.47;1.98;;;-0.50;91.80;-1.00;95236.00;;;;5023333;28;84096;-65
2021/12/19 17:04:38;;;;;;;2.45;1.80;;;-0.50;91.30;-1.00;95227.00;;;;5023716;28;82354;-65
2021/12/19 17:07:05;;;;;;;3.00;2.10;;;-0.60;91.30;-1.10;95229.00;;;;5023683;28;82410;-64
2021/12/19 17:09:31;;;;;;;1.73;1.58;;;-0.60;91.30;-1.10;95226.00;;;;5022853;28;82351;-65
2021/12/19 17:12:09;;;;;;;2.00;1.38;;;-0.60;91.00;-1.10;95229.00;;;;5028931;28;82855;-65
2021/12/19 17:14:36;;;;;;;2.97;1.90;;;-0.70;90.60;-1.20;95226.00;;;;5023247;28;83354;-65
2021/12/19 17:17:02;;;;;;;1.98;1.45;;;-0.60;90.70;-1.20;95234.00;;;;5023012;28;82138;-64
2021/12/19 17:19:29;;;;;;;2.53;1.67;;;-0.70;90.60;-1.20;95232.00;;;;5022769;28;82419;-65
2021/12/19 17:21:56;;;;;;;2.63;1.67;;;-0.70;90.60;-1.20;95248.00;;;;5021122;28;81807;-63
2021/12/19 17:24:23;;;;;;;2.80;1.77;;;-0.70;90.30;-1.30;95235.00;;;;5023104;28;82247;-63
2021/12/19 17:26:51;;;;;;;1.77;1.50;;;-0.80;90.10;-1.30;95251.00;;;;5023463;28;81914;-65
2021/12/19 17:29:18;;;;;;;2.38;1.65;;;-0.80;90.00;-1.30;95241.00;;;;5023239;28;82208;-64
2021/12/19 17:31:45;;;;;;;3.58;1.77;;;-0.90;90.00;-1.40;95241.00;;;;5022414;28;82759;-65
2021/12/19 17:34:11;;;;;;;3.28;1.83;;;-0.90;90.00;-1.40;95245.00;;;;5037836;28;83323;-65
2021/12/19 17:36:38;;;;;;;2.53;1.90;;;-0.90;89.60;-1.40;95244.00;;;;5022590;28;82960;-64
2021/12/19 17:39:06;;;;;;;5.00;2.05;;;-0.90;90.20;-1.40;95240.00;;;;5022279;28;82534;-64
2021/12/19 17:41:33;;;;;;;3.58;2.03;;;-1.00;89.80;-1.50;95253.00;;;;5021714;28;82531;-67
2021/12/19 17:44:00;;;;;;;10.18;1.88;;;-1.00;89.40;-1.60;95258.00;;;;5022994;28;82453;-66
2021/12/19 17:46:29;;;;;;;1.52;1.30;;;-1.10;87.20;-1.80;95249.00;;;;5021129;28;82119;-64
2021/12/19 17:48:56;;;;;;;2.55;1.38;;;-1.30;86.40;-1.90;95256.00;;;;5021029;28;82954;-66
2021/12/19 17:51:22;;;;;;;3.13;1.38;;;-1.40;85.60;-2.00;95262.00;;;;5021984;28;82604;-64
2021/12/19 17:53:49;;;;;;;2.13;1.33;;;-1.40;84.60;-2.00;95261.00;;;;5020293;28;82334;-66
2021/12/19 17:56:16;;;;;;;2.85;1.35;;;-1.50;83.60;-2.10;95284.00;;;;5025487;28;82211;-65
2021/12/19 17:58:44;;;;;;;2.72;1.52;;;-1.60;83.30;-2.20;95273.00;;;;5021964;28;82865;-65
2021/12/19 18:01:14;;;;;;;1.73;1.50;;;-1.70;83.80;-2.30;95273.00;;;;5035414;28;84691;-65
2021/12/19 18:03:47;;;;;;;2.22;1.55;;;-1.80;84.20;-2.40;95292.00;;;;5022688;28;83745;-65
2021/12/19 18:06:15;;;;;;;2.90;1.60;;;-1.80;84.50;-2.50;95275.00;;;;5022497;28;81925;-65
2021/12/19 18:08:42;;;;;;;1.98;1.77;;;-1.90;84.20;-2.50;95275.00;;;;5022480;28;82516;-64
2021/12/19 18:11:09;;;;;;;1.85;1.70;;;-2.00;85.20;-2.60;95293.00;;;;5022580;28;82821;-65
2021/12/19 18:13:35;;;;;;;2.25;1.80;;;-2.10;86.20;-2.70;95301.00;;;;5022004;28;83354;-65
2021/12/19 18:16:02;;;;;;;1.75;1.42;;;-2.20;86.10;-2.80;95301.00;;;;5026612;28;82030;-65
2021/12/19 18:18:28;;;;;;;1.77;1.40;;;-2.20;86.20;-2.80;95292.00;;;;5022870;28;82296;-65
2021/12/19 18:20:55;;;;;;;2.35;1.25;;;-2.20;86.10;-2.80;95296.00;;;;5021187;28;82498;-64
2021/12/19 18:23:23;;;;;;;2.00;1.50;;;-2.20;85.10;-2.80;95289.00;;;;5022787;28;82383;-64
2021/12/19 18:25:50;;;;;;;2.08;1.55;;;-2.30;84.50;-2.80;95298.00;;;;5022083;28;82920;-64
2021/12/19 18:28:16;;;;;;;2.60;1.70;;;-2.20;84.10;-2.80;95289.00;;;;5037121;28;83829;-64
2021/12/19 18:30:44;;;;;;;2.25;1.70;;;-2.20;84.90;-2.80;95304.00;;;;5022427;28;82510;-64
2021/12/19 18:33:13;;;;;;;2.20;1.73;;;-2.20;84.60;-2.80;95289.00;;;;5021499;28;82444;-65
2021/12/19 18:35:41;;;;;;;1.83;1.52;;;-2.20;85.00;-2.80;95302.00;;;;5039238;28;83064;-65
2021/12/19 18:38:09;;;;;;;2.30;1.75;;;-2.30;85.40;-2.90;95300.00;;;;5024988;28;82358;-64
2021/12/19 18:40:38;;;;;;;2.45;1.98;;;-2.30;85.90;-2.90;95300.00;;;;5025039;28;82668;-65
2021/12/19 18:43:16;;;;;;;2.92;2.22;;;-2.30;86.40;-2.90;95310.00;;;;5025690;28;82039;-64
2021/12/19 18:48:45;;;;;;;3.60;2.45;;;-2.40;87.10;-3.00;95315.00;;;;5025409;28;82822;-64
2021/12/19 18:51:09;;;;;;;2.90;2.58;;;-2.40;87.10;-3.00;95314.00;;;;5020194;28;84076;-64
2021/12/19 18:56:09;;;;;;;3.25;2.63;;;-2.40;88.00;-3.00;95324.00;;;;5032532;28;81876;-64
2021/12/19 18:58:43;;;;;;;2.80;2.45;;;-2.40;88.50;-3.00;95334.00;;;;5023711;28;83111;-63
2021/12/19 19:01:21;;;;;;;3.20;2.53;;;-2.40;88.60;-3.00;95327.00;;;;5021034;28;82654;-65
2021/12/19 19:06:32;;;;;;;2.53;2.33;;;-2.50;87.10;-3.10;95333.00;;;;5025836;28;82335;-65
2021/12/19 19:09:00;;;;;;;3.13;2.42;;;-2.50;87.00;-3.20;95360.00;;;;5026331;28;82133;-64
2021/12/19 19:11:27;;;;;;;3.35;2.20;;;-2.60;85.80;-3.20;95348.00;;;;5033006;28;82824;-63
2021/12/19 19:13:56;;;;;;;2.67;2.30;;;-2.60;86.30;-3.20;95357.00;;;;5024714;28;83118;-63
2021/12/19 19:16:24;;;;;;;2.35;2.15;;;-2.60;85.80;-3.30;95358.00;;;;5030026;28;82865;-65
2021/12/19 19:18:52;;;;;;;2.63;2.42;;;-2.70;86.40;-3.30;95349.00;;;;5025228;28;82347;-63
2021/12/19 19:21:18;;;;;;;3.25;2.67;;;-2.70;87.00;-3.30;95348.00;;;;5024539;28;82896;-63
2021/12/19 19:23:46;;;;;;;2.67;2.30;;;-2.80;87.40;-3.30;95354.00;;;;5026871;28;82232;-62